createdAt,value
2018-08-09T00:01:19.368Z,68.60
2018-08-09T00:03:48.207Z,69.42
2018-08-09T00:06:17.086Z,68.82
2018-08-09T00:08:45.967Z,68.95
2018-08-09T00:11:14.893Z,69.18
2018-08-09T00:13:43.752Z,69.52
2018-08-09T00:16:12.656Z,69.89
2018-08-09T00:18:41.568Z,68.91
2018-08-09T00:21:10.455Z,69.94
2018-08-09T00:23:39.337Z,70.21
2018-08-09T00:26:08.244Z,69.48
2018-08-09T00:28:37.121Z,69.52
2018-08-09T00:31:06.299Z,69.87
2018-08-09T00:33:35.389Z,69.83
2018-08-09T00:36:04.504Z,69.66
2018-08-09T00:38:33.376Z,70.42
2018-08-09T00:41:02.256Z,69.43
2018-08-09T00:43:31.193Z,69.46
2018-08-09T00:46:00.090Z,71.00
2018-08-09T00:48:28.999Z,71.31
2018-08-09T00:50:57.913Z,71.77
2018-08-09T00:53:26.869Z,71.17
2018-08-09T00:55:55.804Z,71.36
2018-08-09T00:58:24.716Z,71.29
2018-08-09T01:00:53.619Z,71.59
2018-08-09T01:03:22.515Z,71.89
2018-08-09T01:05:51.412Z,71.32
2018-08-09T01:08:20.281Z,71.68
2018-08-09T01:10:49.464Z,72.46
2018-08-09T01:13:18.417Z,72.14
2018-08-09T01:15:47.314Z,71.60
2018-08-09T01:18:16.249Z,71.29
2018-08-09T01:20:45.140Z,71.98
2018-08-09T01:23:14.034Z,72.17
2018-08-09T01:25:42.921Z,71.45
2018-08-09T01:28:11.863Z,72.09
2018-08-09T01:30:40.710Z,71.94
2018-08-09T01:33:09.611Z,71.90
2018-08-09T01:35:38.505Z,71.61
2018-08-09T01:38:07.413Z,72.26
2018-08-09T01:40:36.288Z,72.68
2018-08-09T01:43:16.418Z,72.84
2018-08-09T01:45:45.329Z,72.53
2018-08-09T01:48:14.233Z,71.04
2018-08-09T01:50:43.139Z,72.27
2018-08-09T01:53:12.028Z,73.32
2018-08-09T01:55:41.948Z,72.26
2018-08-09T01:58:10.816Z,71.42
2018-08-09T02:00:39.727Z,71.75
2018-08-09T02:03:08.609Z,72.22
2018-08-09T02:05:37.611Z,71.32
2018-08-09T02:08:06.509Z,71.43
2018-08-09T02:10:35.448Z,72.37
2018-08-09T02:13:04.341Z,72.74
2018-08-09T02:15:33.292Z,73.34
2018-08-09T02:18:02.138Z,72.62
2018-08-09T02:20:31.033Z,72.44
2018-08-09T02:22:59.909Z,73.06
2018-08-09T02:25:29.116Z,73.32
2018-08-09T02:27:57.988Z,73.44
2018-08-09T02:30:26.873Z,74.44
2018-08-09T02:32:55.772Z,73.81
2018-08-09T02:35:24.747Z,73.39
2018-08-09T02:37:53.713Z,73.33
2018-08-09T02:40:22.737Z,73.76
2018-08-09T02:42:51.666Z,73.82
2018-08-09T02:45:20.586Z,73.80
2018-08-09T02:47:49.488Z,73.04
2018-08-09T02:50:18.373Z,74.04
2018-08-09T02:52:47.344Z,73.53
2018-08-09T02:55:16.231Z,74.81
2018-08-09T02:57:45.142Z,74.49
2018-08-09T03:00:14.024Z,74.62
2018-08-09T03:02:42.889Z,74.78
2018-08-09T03:05:11.824Z,74.18
2018-08-09T03:07:40.714Z,74.28
2018-08-09T03:10:09.657Z,74.31
2018-08-09T03:12:38.603Z,73.70
2018-08-09T03:15:07.507Z,73.30
2018-08-09T03:17:36.659Z,72.26
2018-08-09T03:20:05.602Z,72.53
2018-08-09T03:22:34.557Z,71.68
2018-08-09T03:25:03.511Z,71.16
2018-08-09T03:27:32.608Z,71.42
2018-08-09T03:30:01.785Z,69.59
2018-08-09T03:32:30.661Z,68.21
2018-08-09T03:34:59.540Z,68.06
2018-08-09T03:37:28.771Z,68.49
2018-08-09T03:39:57.774Z,69.88
2018-08-09T03:42:26.660Z,68.62
2018-08-09T03:44:55.568Z,68.85
2018-08-09T03:47:24.474Z,69.26
2018-08-09T03:49:53.406Z,68.66
2018-08-09T03:52:22.316Z,67.56
2018-08-09T03:54:51.262Z,68.04
2018-08-09T03:57:20.130Z,68.10
2018-08-09T03:59:49.097Z,68.42
2018-08-09T04:02:17.932Z,68.50
2018-08-09T04:04:46.840Z,68.31
2018-08-09T04:07:15.745Z,68.26
2018-08-09T04:09:44.681Z,67.95
2018-08-09T04:12:13.651Z,67.57
2018-08-09T04:14:42.586Z,67.46
2018-08-09T04:17:17.078Z,66.96
2018-08-09T04:19:46.171Z,66.66
2018-08-09T04:22:15.030Z,67.21
2018-08-09T04:24:43.948Z,66.79
2018-08-09T04:27:13.012Z,66.32
2018-08-09T04:29:41.950Z,65.94
2018-08-09T04:32:10.865Z,67.09
2018-08-09T04:34:39.768Z,66.50
2018-08-09T04:37:09.166Z,66.08
2018-08-09T04:39:38.211Z,66.48
2018-08-09T04:42:07.194Z,67.35
2018-08-09T04:44:36.237Z,65.87
2018-08-09T04:47:05.256Z,66.00
2018-08-09T04:49:34.158Z,65.99
2018-08-09T04:52:03.044Z,66.16
2018-08-09T04:54:31.911Z,66.62
2018-08-09T04:57:00.941Z,66.64
2018-08-09T04:59:29.852Z,66.65
2018-08-09T05:01:58.746Z,66.21
2018-08-09T05:04:27.638Z,66.30
2018-08-09T05:06:56.818Z,65.82
2018-08-09T05:09:25.898Z,66.57
2018-08-09T05:11:54.808Z,66.91
2018-08-09T05:14:23.715Z,66.69
2018-08-09T05:16:52.669Z,65.81
2018-08-09T05:19:21.624Z,65.88
2018-08-09T05:21:50.533Z,65.08
2018-08-09T05:24:19.498Z,65.40
2018-08-09T05:26:48.354Z,64.94
2018-08-09T05:29:17.255Z,65.20
2018-08-09T05:31:46.143Z,64.97
2018-08-09T05:34:15.129Z,65.84
2018-08-09T05:36:44.040Z,65.48
2018-08-09T05:39:13.023Z,65.99
2018-08-09T05:41:42.273Z,66.22
2018-08-09T05:44:11.293Z,66.02
2018-08-09T05:46:40.166Z,66.38
2018-08-09T05:49:09.928Z,66.43
2018-08-09T05:51:38.814Z,66.29
2018-08-09T05:54:07.705Z,66.02
2018-08-09T05:56:36.652Z,66.65
2018-08-09T05:59:05.601Z,65.88
2018-08-09T06:01:34.596Z,66.62
2018-08-09T06:04:04.638Z,66.59
2018-08-09T06:06:33.863Z,66.21
2018-08-09T06:09:02.838Z,65.48
2018-08-09T06:11:31.798Z,65.93
2018-08-09T06:14:00.747Z,65.09
2018-08-09T06:16:29.785Z,65.40
2018-08-09T06:18:58.917Z,65.01
2018-08-09T06:21:27.769Z,64.96
2018-08-09T06:23:56.677Z,63.31
2018-08-09T06:26:26.808Z,63.57
2018-08-09T06:28:55.630Z,64.50
2018-08-09T06:31:24.662Z,63.16
2018-08-09T06:33:53.587Z,63.38
2018-08-09T06:36:22.501Z,62.92
2018-08-09T06:38:52.416Z,62.28
2018-08-09T06:41:21.298Z,61.35
2018-08-09T06:43:50.201Z,61.24
2018-08-09T06:46:19.140Z,61.16
2018-08-09T06:48:48.040Z,61.18
2018-08-09T06:51:16.934Z,60.44
2018-08-09T06:53:45.848Z,60.21
2018-08-09T06:56:14.780Z,60.83
2018-08-09T06:58:43.664Z,60.78
2018-08-09T07:01:12.526Z,60.80
2018-08-09T07:03:41.426Z,60.38
2018-08-09T07:06:10.319Z,59.75
2018-08-09T07:08:39.316Z,60.01
2018-08-09T07:11:08.210Z,60.44
2018-08-09T07:13:37.096Z,60.07
2018-08-09T07:16:06.093Z,59.88
2018-08-09T07:18:34.990Z,60.04
2018-08-09T07:21:04.003Z,60.11
2018-08-09T07:23:32.886Z,59.08
2018-08-09T07:26:01.807Z,58.97
2018-08-09T07:28:30.684Z,58.83
2018-08-09T07:30:59.624Z,59.09
2018-08-09T07:33:28.635Z,59.04
2018-08-09T07:35:57.518Z,59.56
2018-08-09T07:38:27.990Z,59.25
2018-08-09T07:40:56.868Z,58.90
2018-08-09T07:43:25.754Z,58.19
2018-08-09T07:45:54.640Z,59.52
2018-08-09T07:48:23.572Z,58.42
2018-08-09T07:50:52.408Z,57.98
2018-08-09T07:53:21.290Z,57.79
2018-08-09T07:55:50.219Z,58.31
2018-08-09T07:58:19.119Z,58.59
2018-08-09T08:00:48.089Z,58.46
2018-08-09T08:03:17.099Z,59.16
2018-08-09T08:05:45.961Z,58.99
2018-08-09T08:08:14.910Z,59.04
2018-08-09T08:10:43.813Z,59.09
2018-08-09T08:13:12.788Z,58.72
2018-08-09T08:15:41.671Z,58.94
2018-08-09T08:18:10.547Z,58.47
2018-08-09T08:20:39.464Z,58.69
2018-08-09T08:23:08.407Z,58.60
2018-08-09T08:25:37.315Z,58.07
2018-08-09T08:28:06.178Z,58.05
2018-08-09T08:30:35.192Z,57.36
2018-08-09T08:33:04.425Z,57.25
2018-08-09T08:35:33.294Z,57.50
2018-08-09T08:38:02.297Z,57.45
2018-08-09T08:40:31.181Z,56.79
2018-08-09T08:43:00.130Z,57.80
2018-08-09T08:45:29.046Z,57.15
2018-08-09T08:47:58.006Z,57.68
2018-08-09T08:50:26.917Z,56.83
2018-08-09T08:52:55.805Z,57.89
2018-08-09T08:55:24.699Z,57.52
2018-08-09T08:57:53.590Z,58.02
2018-08-09T09:00:22.500Z,57.46
2018-08-09T09:02:51.392Z,57.52
2018-08-09T09:05:20.286Z,58.28
2018-08-09T09:07:49.181Z,57.81
2018-08-09T09:10:18.099Z,58.48
2018-08-09T09:12:46.972Z,58.91
2018-08-09T09:15:16.238Z,59.18
2018-08-09T09:17:45.249Z,58.76
2018-08-09T09:20:17.342Z,59.42
2018-08-09T09:22:46.716Z,59.86
2018-08-09T09:25:16.093Z,58.97
2018-08-09T09:27:45.188Z,59.70
2018-08-09T09:30:16.560Z,59.46
2018-08-09T09:32:45.748Z,58.74
2018-08-09T09:35:14.692Z,58.67
2018-08-09T09:37:43.899Z,58.87
2018-08-09T09:40:12.976Z,58.61
2018-08-09T09:42:41.928Z,58.62
2018-08-09T09:45:10.927Z,58.61
2018-08-09T09:47:39.800Z,58.73
2018-08-09T09:50:09.834Z,58.81
2018-08-09T09:52:38.726Z,58.93
2018-08-09T09:55:08.681Z,58.82
2018-08-09T09:57:37.986Z,59.68
2018-08-09T10:00:12.210Z,59.12
2018-08-09T10:02:41.082Z,59.60
2018-08-09T10:05:10.110Z,63.12
2018-08-09T10:07:38.985Z,65.20
2018-08-09T10:10:07.986Z,70.51
2018-08-09T10:12:36.906Z,71.15
2018-08-09T10:15:06.804Z,70.11
2018-08-09T10:17:36.064Z,72.75
2018-08-09T10:20:05.569Z,72.41
2018-08-09T10:22:34.517Z,70.77
2018-08-09T10:25:03.515Z,68.99
2018-08-09T10:27:32.384Z,66.08
2018-08-09T10:30:01.353Z,65.12
2018-08-09T10:32:30.179Z,64.79
2018-08-09T10:34:59.119Z,64.10
2018-08-09T10:37:28.056Z,62.16
2018-08-09T10:39:57.035Z,60.63
2018-08-09T10:42:26.019Z,60.53
2018-08-09T10:44:55.022Z,60.67
2018-08-09T10:47:24.168Z,60.84
2018-08-09T10:49:53.513Z,60.19
2018-08-09T10:52:22.476Z,58.42
2018-08-09T10:54:51.394Z,57.99
2018-08-09T10:57:21.426Z,56.13
2018-08-09T10:59:50.357Z,56.29
2018-08-09T11:02:19.294Z,56.50
2018-08-09T11:04:48.216Z,55.54
2018-08-09T11:07:17.224Z,56.26
2018-08-09T11:09:46.122Z,56.44
2018-08-09T11:12:15.006Z,55.85
2018-08-09T11:14:43.926Z,56.00
2018-08-09T11:17:13.232Z,54.84
2018-08-09T11:19:42.526Z,55.05
2018-08-09T11:22:11.457Z,55.37
2018-08-09T11:24:40.338Z,55.36
2018-08-09T11:27:09.372Z,55.20
2018-08-09T11:29:38.367Z,56.08
2018-08-09T11:32:07.309Z,55.52
2018-08-09T11:34:36.215Z,54.74
2018-08-09T11:37:05.375Z,54.62
2018-08-09T11:39:34.297Z,54.40
2018-08-09T11:42:03.207Z,54.43
2018-08-09T11:44:32.173Z,54.47
2018-08-09T11:47:01.204Z,53.95
2018-08-09T11:49:30.115Z,53.87
2018-08-09T11:51:59.038Z,54.22
2018-08-09T11:54:28.080Z,54.60
2018-08-09T11:56:57.268Z,55.41
2018-08-09T11:59:26.256Z,55.59
2018-08-09T12:01:55.174Z,55.62
2018-08-09T12:04:24.234Z,55.09
2018-08-09T12:06:53.165Z,55.22
2018-08-09T12:09:22.261Z,55.54
2018-08-09T12:11:51.164Z,55.72
2018-08-09T12:14:20.112Z,55.51
2018-08-09T12:16:49.298Z,55.52
2018-08-09T12:19:18.404Z,55.85
2018-08-09T12:21:47.318Z,56.92
2018-08-09T12:24:16.346Z,55.51
2018-08-09T12:26:45.269Z,55.36
2018-08-09T12:29:14.444Z,55.43
2018-08-09T12:31:43.333Z,55.67
2018-08-09T12:34:12.244Z,54.40
2018-08-09T12:36:42.214Z,54.32
2018-08-09T12:39:12.600Z,54.33
2018-08-09T12:41:41.830Z,56.29
2018-08-09T12:44:11.144Z,55.22
2018-08-09T12:46:40.126Z,55.29
2018-08-09T12:49:09.594Z,56.68
2018-08-09T12:51:38.489Z,56.61
2018-08-09T12:54:07.424Z,56.00
2018-08-09T12:56:36.435Z,55.06
2018-08-09T12:59:05.398Z,53.67
2018-08-09T13:01:34.825Z,53.93
2018-08-09T13:04:03.957Z,54.18
2018-08-09T13:06:32.956Z,54.99
2018-08-09T13:09:02.416Z,55.73
2018-08-09T13:11:31.866Z,59.67
2018-08-09T13:14:01.333Z,69.77
2018-08-09T13:16:30.831Z,75.67
2018-08-09T13:19:00.380Z,78.73
2018-08-09T13:21:29.681Z,78.58
2018-08-09T13:23:59.053Z,77.77
2018-08-09T13:26:28.008Z,79.58
2018-08-09T13:28:56.939Z,81.27
2018-08-09T13:31:25.941Z,86.17
2018-08-09T13:33:54.941Z,86.57
2018-08-09T13:36:24.154Z,88.18
2018-08-09T13:38:53.167Z,88.90
2018-08-09T13:41:22.147Z,87.57
2018-08-09T13:43:51.349Z,87.18
2018-08-09T13:46:20.437Z,87.05
2018-08-09T13:48:49.371Z,82.90
2018-08-09T13:51:18.285Z,81.10
2018-08-09T13:53:47.329Z,76.98
2018-08-09T13:56:16.275Z,76.48
2018-08-09T13:58:45.169Z,74.77
2018-08-09T14:01:14.087Z,67.63
2018-08-09T14:03:43.123Z,65.00
2018-08-09T14:06:12.722Z,61.62
2018-08-09T14:08:43.155Z,60.67
2018-08-09T14:11:12.063Z,57.44
2018-08-09T14:13:41.182Z,57.87
2018-08-09T14:16:10.504Z,56.53
2018-08-09T14:18:39.768Z,55.38
2018-08-09T14:21:08.746Z,56.04
2018-08-09T14:23:37.652Z,55.62
2018-08-09T14:26:06.570Z,56.13
2018-08-09T14:28:35.512Z,55.92
2018-08-09T14:31:04.491Z,57.56
2018-08-09T14:33:33.585Z,57.04
2018-08-09T14:36:02.723Z,57.22
2018-08-09T14:38:32.036Z,56.75
2018-08-09T14:41:01.304Z,58.21
2018-08-09T14:43:30.677Z,57.37
2018-08-09T14:46:02.843Z,57.56
2018-08-09T14:48:33.064Z,59.00
2018-08-09T14:51:02.876Z,59.08
2018-08-09T14:53:31.762Z,60.11
2018-08-09T14:56:00.707Z,61.35
2018-08-09T14:58:30.891Z,61.59
2018-08-09T15:00:59.854Z,61.65
2018-08-09T15:03:28.760Z,61.81
2018-08-09T15:05:57.762Z,63.09
2018-08-09T15:08:26.779Z,62.46
2018-08-09T15:10:55.760Z,63.26
2018-08-09T15:13:24.761Z,62.39
2018-08-09T15:15:53.679Z,62.73
2018-08-09T15:18:22.836Z,63.18
2018-08-09T15:20:51.837Z,64.46
2018-08-09T15:23:20.754Z,64.58
2018-08-09T15:25:49.606Z,65.11
2018-08-09T15:28:19.140Z,65.34
2018-08-09T15:30:48.193Z,66.05
2018-08-09T15:33:17.052Z,66.66
2018-08-09T15:35:45.996Z,66.67
2018-08-09T15:38:16.108Z,67.03
2018-08-09T15:40:45.024Z,67.23
2018-08-09T15:43:13.996Z,67.68
2018-08-09T15:45:44.177Z,67.17
2018-08-09T15:48:15.167Z,67.55
2018-08-09T15:50:44.173Z,68.09
2018-08-09T15:53:13.490Z,67.81
2018-08-09T15:55:42.430Z,67.26
2018-08-09T15:58:11.583Z,66.41
2018-08-09T16:00:40.803Z,66.49
2018-08-09T16:03:09.696Z,66.05
2018-08-09T16:05:38.665Z,65.48
2018-08-09T16:08:07.658Z,64.52
2018-08-09T16:10:36.553Z,64.46
2018-08-09T16:13:05.464Z,64.53
2018-08-09T16:15:34.391Z,63.79
2018-08-09T16:18:04.064Z,64.06
2018-08-09T16:20:32.964Z,63.48
2018-08-09T16:23:01.920Z,62.76
2018-08-09T16:25:30.827Z,61.71
2018-08-09T16:27:59.778Z,61.12
2018-08-09T16:30:28.708Z,60.90
2018-08-09T16:32:57.705Z,61.17
2018-08-09T16:35:26.891Z,59.83
2018-08-09T16:37:57.172Z,59.51
2018-08-09T16:40:27.354Z,59.33
2018-08-09T16:42:56.232Z,58.59
2018-08-09T16:45:25.600Z,57.59
2018-08-09T16:47:55.008Z,57.92
2018-08-09T16:50:25.107Z,57.63
2018-08-09T16:52:54.130Z,57.40
2018-08-09T16:55:24.263Z,56.98
2018-08-09T16:57:53.224Z,56.91
2018-08-09T17:00:23.377Z,57.41
2018-08-09T17:02:53.365Z,56.25
2018-08-09T17:05:23.596Z,56.41
2018-08-09T17:07:52.585Z,56.85
2018-08-09T17:10:22.580Z,56.17
2018-08-09T17:12:51.715Z,57.04
2018-08-09T17:15:21.749Z,56.54
2018-08-09T17:17:50.888Z,56.70
2018-08-09T17:20:25.016Z,57.46
2018-08-09T17:22:53.990Z,57.35
2018-08-09T17:25:23.493Z,58.03
2018-08-09T17:27:53.112Z,57.84
2018-08-09T17:30:24.162Z,57.52
2018-08-09T17:32:53.318Z,57.65
2018-08-09T17:35:22.336Z,58.17
2018-08-09T17:37:51.638Z,57.87
2018-08-09T17:40:26.793Z,58.25
2018-08-09T17:42:57.692Z,60.13
2018-08-09T17:45:28.138Z,61.41
2018-08-09T17:47:57.170Z,69.52
2018-08-09T17:50:26.187Z,79.97
2018-08-09T17:52:56.386Z,82.42
2018-08-09T17:55:25.319Z,84.36
2018-08-09T17:57:54.710Z,83.67
2018-08-09T18:00:25.581Z,84.53
2018-08-09T18:02:54.619Z,86.30
2018-08-09T18:05:23.662Z,85.72
2018-08-09T18:07:55.640Z,86.14
2018-08-09T18:10:26.982Z,85.53
2018-08-09T18:12:56.006Z,85.83
2018-08-09T18:15:26.386Z,86.63
2018-08-09T18:17:55.781Z,84.99
2018-08-09T18:20:27.797Z,86.15
2018-08-09T18:22:56.958Z,84.09
2018-08-09T18:25:25.985Z,83.73
2018-08-09T18:27:54.870Z,82.35
2018-08-09T18:30:23.740Z,80.66
2018-08-09T18:32:52.682Z,80.89
2018-08-09T18:35:21.568Z,81.56
2018-08-09T18:37:50.567Z,81.16
2018-08-09T18:40:23.458Z,81.29
2018-08-09T18:42:52.480Z,80.54
2018-08-09T18:45:21.844Z,79.87
2018-08-09T18:47:50.806Z,80.63
2018-08-09T18:50:28.748Z,79.60
2018-08-09T18:52:57.754Z,80.53
2018-08-09T18:55:26.745Z,81.39
2018-08-09T18:57:55.976Z,79.76
2018-08-09T19:00:26.873Z,79.71
2018-08-09T19:02:55.981Z,80.01
2018-08-09T19:05:25.350Z,79.96
2018-08-09T19:07:54.423Z,79.46
2018-08-09T19:10:24.881Z,78.06
2018-08-09T19:12:53.802Z,77.39
2018-08-09T19:15:22.768Z,77.42
2018-08-09T19:17:52.423Z,77.65
2018-08-09T19:20:35.979Z,77.96
2018-08-09T19:23:06.045Z,77.14
2018-08-09T19:25:35.964Z,76.94
2018-08-09T19:28:04.893Z,75.48
2018-08-09T19:30:33.811Z,76.66
2018-08-09T19:33:02.684Z,75.95
2018-08-09T19:35:31.571Z,76.00
2018-08-09T19:38:00.470Z,74.87
2018-08-09T19:40:30.254Z,73.99
2018-08-09T19:43:00.271Z,74.47
2018-08-09T19:45:29.187Z,74.51
2018-08-09T19:47:58.504Z,73.28
2018-08-09T19:50:27.575Z,73.45
2018-08-09T19:52:56.790Z,72.99
2018-08-09T19:55:26.535Z,72.02
2018-08-09T19:57:55.584Z,72.57
2018-08-09T20:00:27.200Z,71.57
2018-08-09T20:02:56.076Z,72.29
2018-08-09T20:05:25.166Z,72.32
2018-08-09T20:07:54.103Z,71.58
2018-08-09T20:10:23.006Z,72.17
2018-08-09T20:12:51.966Z,73.14
2018-08-09T20:15:22.754Z,72.12
2018-08-09T20:17:51.757Z,71.52
2018-08-09T20:20:22.257Z,71.94
2018-08-09T20:22:51.168Z,71.65
2018-08-09T20:25:20.198Z,71.83
2018-08-09T20:27:49.257Z,70.52
2018-08-09T20:30:18.823Z,70.45
2018-08-09T20:32:48.131Z,70.93
2018-08-09T20:35:23.907Z,71.44
2018-08-09T20:37:53.207Z,71.19
2018-08-09T20:40:23.184Z,71.19
2018-08-09T20:42:53.201Z,72.06
2018-08-09T20:45:23.196Z,71.49
2018-08-09T20:47:52.292Z,71.87
2018-08-09T20:50:24.860Z,70.63
2018-08-09T20:52:53.729Z,70.01
2018-08-09T20:55:22.827Z,69.69
2018-08-09T20:57:52.500Z,70.63
2018-08-09T21:00:24.345Z,71.36
2018-08-09T21:02:54.743Z,71.99
2018-08-09T21:05:29.260Z,72.09
2018-08-09T21:07:58.887Z,72.90
2018-08-09T21:10:28.305Z,73.22
2018-08-09T21:12:57.294Z,74.32
2018-08-09T21:15:26.499Z,73.39
2018-08-09T21:17:55.464Z,73.96
2018-08-09T21:20:24.381Z,74.14
2018-08-09T21:22:53.328Z,74.66
2018-08-09T21:25:22.231Z,74.80
2018-08-09T21:27:51.352Z,74.55
2018-08-09T21:30:21.507Z,74.67
2018-08-09T21:32:50.919Z,74.24
2018-08-09T21:35:19.865Z,74.97
2018-08-09T21:37:48.805Z,75.06
2018-08-09T21:40:17.751Z,75.61
2018-08-09T21:42:46.729Z,75.09
2018-08-09T21:45:17.125Z,74.54
2018-08-09T21:47:46.263Z,74.95
2018-08-09T21:50:18.017Z,75.60
2018-08-09T21:52:46.925Z,75.40
2018-08-09T21:55:15.885Z,76.20
2018-08-09T21:57:45.600Z,75.89
2018-08-09T22:00:51.688Z,76.31
2018-08-09T22:03:22.572Z,76.47
2018-08-09T22:05:56.988Z,76.51
2018-08-09T22:08:30.961Z,76.60
2018-08-09T22:11:05.137Z,77.94
2018-08-09T22:13:39.323Z,77.93
2018-08-09T22:16:13.935Z,78.27
2018-08-09T22:18:48.289Z,78.16
2018-08-09T22:21:22.722Z,77.87
2018-08-09T22:23:51.623Z,77.85
2018-08-09T22:26:20.570Z,78.36
2018-08-09T22:28:49.542Z,77.94
2018-08-09T22:31:18.478Z,78.38
2018-08-09T22:33:47.435Z,78.70
2018-08-09T22:36:16.543Z,78.68
2018-08-09T22:38:45.949Z,79.10
2018-08-09T22:41:14.875Z,78.29
2018-08-09T22:43:44.349Z,76.69
2018-08-09T22:46:13.857Z,78.16
2018-08-09T22:48:43.053Z,78.50
2018-08-09T22:51:12.557Z,78.87
2018-08-09T22:53:42.003Z,78.70
2018-08-09T22:56:11.447Z,77.81
2018-08-09T22:58:40.938Z,77.68
2018-08-09T23:01:10.352Z,77.68
2018-08-09T23:03:39.888Z,78.29
2018-08-09T23:06:09.330Z,77.29
2018-08-09T23:08:38.628Z,77.60
2018-08-09T23:11:08.450Z,76.73
2018-08-09T23:13:37.733Z,76.63
2018-08-09T23:16:07.344Z,77.32
2018-08-09T23:18:36.742Z,77.64
2018-08-09T23:21:06.020Z,76.53
2018-08-09T23:23:35.393Z,77.59
2018-08-09T23:26:04.484Z,76.21
2018-08-09T23:28:33.550Z,75.58
2018-08-09T23:31:02.437Z,76.44
2018-08-09T23:33:31.547Z,76.25
2018-08-09T23:36:00.461Z,76.44
2018-08-09T23:38:29.345Z,78.42
2018-08-09T23:40:58.237Z,78.45
2018-08-09T23:43:27.267Z,77.42
2018-08-09T23:45:56.118Z,77.99
2018-08-09T23:48:25.016Z,77.12
2018-08-09T23:50:53.928Z,76.83
2018-08-09T23:53:22.780Z,75.92
2018-08-09T23:55:51.662Z,75.05
2018-08-09T23:58:20.803Z,74.31
